createdAt,value
2018-06-15T00:02:30.031Z,33.43
2018-06-15T00:04:57.817Z,34.73
2018-06-15T00:07:25.615Z,34.93
2018-06-15T00:09:53.293Z,37.13
2018-06-15T00:12:21.089Z,35.30
2018-06-15T00:14:48.701Z,36.53
2018-06-15T00:17:16.391Z,37.63
2018-06-15T00:19:44.005Z,36.37
2018-06-15T00:22:11.632Z,37.07
2018-06-15T00:24:39.250Z,34.73
2018-06-15T00:27:07.053Z,36.57
2018-06-15T00:29:34.721Z,34.90
2018-06-15T00:32:02.616Z,36.17
2018-06-15T00:34:30.161Z,35.97
2018-06-15T00:36:57.786Z,35.87
2018-06-15T00:39:25.500Z,37.50
2018-06-15T00:41:53.216Z,35.77
2018-06-15T00:44:20.799Z,40.20
2018-06-15T00:46:48.415Z,40.07
2018-06-15T00:49:15.999Z,38.93
2018-06-15T00:51:44.022Z,38.70
2018-06-15T00:54:11.693Z,36.73
2018-06-15T00:56:50.971Z,36.50
2018-06-15T00:59:18.591Z,35.17
2018-06-15T01:01:46.263Z,37.50
2018-06-15T01:04:13.893Z,34.37
2018-06-15T01:06:41.577Z,33.97
2018-06-15T01:09:10.417Z,36.27
2018-06-15T01:11:38.292Z,35.57
2018-06-15T01:14:05.977Z,38.27
2018-06-15T01:16:33.543Z,36.00
2018-06-15T01:19:01.664Z,34.70
2018-06-15T01:21:29.427Z,36.23
2018-06-15T01:23:57.049Z,34.60
2018-06-15T01:26:24.616Z,33.73
2018-06-15T01:28:52.217Z,34.13
2018-06-15T01:31:19.868Z,33.57
2018-06-15T01:33:47.498Z,35.63
2018-06-15T01:36:15.322Z,37.87
2018-06-15T01:38:42.960Z,37.77
2018-06-15T01:41:10.557Z,41.97
2018-06-15T01:43:38.218Z,38.27
2018-06-15T01:46:05.762Z,36.30
2018-06-15T01:48:33.360Z,34.17
2018-06-15T01:51:00.950Z,35.27
2018-06-15T01:53:28.736Z,33.50
2018-06-15T01:55:56.405Z,34.63
2018-06-15T01:58:24.311Z,35.57
2018-06-15T02:00:51.849Z,33.70
2018-06-15T02:03:19.531Z,35.20
2018-06-15T02:05:47.229Z,32.50
2018-06-15T02:08:15.168Z,32.80
2018-06-15T02:10:42.770Z,31.67
2018-06-15T02:13:10.358Z,32.97
2018-06-15T02:15:37.982Z,32.70
2018-06-15T02:18:05.599Z,33.10
2018-06-15T02:20:33.421Z,33.47
2018-06-15T02:23:01.065Z,32.87
2018-06-15T02:25:28.870Z,31.93
2018-06-15T02:27:56.487Z,31.10
2018-06-15T02:30:24.110Z,29.73
2018-06-15T02:32:51.674Z,31.40
2018-06-15T02:35:19.295Z,32.37
2018-06-15T02:37:46.863Z,31.13
2018-06-15T02:40:14.661Z,33.97
2018-06-15T02:42:42.353Z,31.73
2018-06-15T02:45:10.065Z,32.90
2018-06-15T02:47:37.782Z,32.50
2018-06-15T02:50:05.476Z,33.13
2018-06-15T02:52:33.215Z,32.10
2018-06-15T02:55:00.878Z,31.97
2018-06-15T02:57:36.093Z,30.17
2018-06-15T03:00:04.795Z,27.23
2018-06-15T03:02:32.379Z,26.70
2018-06-15T03:05:00.076Z,27.83
2018-06-15T03:07:27.645Z,28.03
2018-06-15T03:09:55.267Z,28.50
2018-06-15T03:12:22.817Z,27.13
2018-06-15T03:14:50.429Z,30.77
2018-06-15T03:17:18.046Z,35.33
2018-06-15T03:19:45.687Z,37.77
2018-06-15T03:22:13.272Z,36.50
2018-06-15T03:24:40.910Z,35.27
2018-06-15T03:27:08.499Z,37.00
2018-06-15T03:29:36.097Z,33.87
2018-06-15T03:32:03.634Z,34.90
2018-06-15T03:34:31.250Z,34.40
2018-06-15T03:36:58.799Z,33.60
2018-06-15T03:39:26.436Z,33.60
2018-06-15T03:41:54.039Z,32.83
2018-06-15T03:44:21.696Z,33.20
2018-06-15T03:46:49.254Z,32.80
2018-06-15T03:49:16.899Z,34.80
2018-06-15T03:51:44.503Z,35.47
2018-06-15T03:54:12.146Z,35.83
2018-06-15T03:56:39.770Z,36.83
2018-06-15T03:59:07.350Z,38.20
2018-06-15T04:01:34.990Z,36.47
2018-06-15T04:04:02.532Z,37.10
2018-06-15T04:06:30.166Z,32.13
2018-06-15T04:08:57.775Z,35.70
2018-06-15T04:11:25.378Z,37.23
2018-06-15T04:13:52.940Z,38.00
2018-06-15T04:16:20.556Z,39.70
2018-06-15T04:18:48.134Z,38.10
2018-06-15T04:21:16.054Z,36.53
2018-06-15T04:23:43.736Z,33.43
2018-06-15T04:26:11.345Z,34.57
2018-06-15T04:28:39.737Z,33.60
2018-06-15T04:31:07.388Z,34.80
2018-06-15T04:33:35.049Z,34.27
2018-06-15T04:36:02.685Z,36.03
2018-06-15T04:38:30.334Z,34.53
2018-06-15T04:40:57.905Z,36.00
2018-06-15T04:43:25.461Z,35.23
2018-06-15T04:45:53.044Z,34.03
2018-06-15T04:48:20.640Z,34.50
2018-06-15T04:50:48.318Z,31.80
2018-06-15T04:53:15.888Z,34.60
2018-06-15T04:55:43.465Z,32.33
2018-06-15T04:58:11.009Z,31.67
2018-06-15T05:00:40.022Z,32.80
2018-06-15T05:03:07.685Z,33.63
2018-06-15T05:05:35.322Z,32.50
2018-06-15T05:08:02.973Z,30.67
2018-06-15T05:10:30.567Z,31.13
2018-06-15T05:12:58.177Z,33.67
2018-06-15T05:15:25.818Z,29.63
2018-06-15T05:17:53.450Z,34.77
2018-06-15T05:20:21.046Z,32.80
2018-06-15T05:22:48.643Z,33.13
2018-06-15T05:25:16.484Z,34.07
2018-06-15T05:27:44.069Z,34.77
2018-06-15T05:30:11.720Z,32.10
2018-06-15T05:32:39.405Z,33.87
2018-06-15T05:35:07.665Z,34.13
2018-06-15T05:37:35.556Z,31.27
2018-06-15T05:40:03.591Z,32.50
2018-06-15T05:42:31.200Z,32.93
2018-06-15T05:44:58.784Z,31.00
2018-06-15T05:47:26.356Z,31.60
2018-06-15T05:49:53.930Z,29.80
2018-06-15T05:52:21.577Z,27.47
2018-06-15T05:54:49.188Z,29.77
2018-06-15T05:57:16.865Z,26.10
2018-06-15T05:59:44.476Z,26.00
2018-06-15T06:02:12.185Z,25.53
2018-06-15T06:04:39.811Z,25.77
2018-06-15T06:07:07.471Z,24.33
2018-06-15T06:09:35.096Z,24.07
2018-06-15T06:12:02.758Z,24.67
2018-06-15T06:14:30.353Z,22.03
2018-06-15T06:16:57.974Z,22.10
2018-06-15T06:19:25.569Z,20.20
2018-06-15T06:21:53.234Z,19.47
2018-06-15T06:24:20.858Z,18.97
2018-06-15T06:26:48.514Z,21.20
2018-06-15T06:29:16.110Z,17.97
2018-06-15T06:31:43.709Z,24.50
2018-06-15T06:34:11.424Z,22.37
2018-06-15T06:36:39.054Z,22.40
2018-06-15T06:39:08.527Z,19.77
2018-06-15T06:41:36.194Z,22.37
2018-06-15T06:44:03.814Z,18.73
2018-06-15T06:46:31.746Z,18.33
2018-06-15T06:48:59.413Z,16.40
2018-06-15T06:51:27.101Z,18.17
2018-06-15T06:53:54.736Z,14.50
2018-06-15T06:56:22.353Z,15.77
2018-06-15T06:58:49.958Z,16.03
2018-06-15T07:01:17.764Z,18.87
2018-06-15T07:03:45.407Z,25.97
2018-06-15T07:06:13.005Z,12.30
2018-06-15T07:08:40.895Z,13.77
2018-06-15T07:11:08.477Z,14.20
2018-06-15T07:13:36.092Z,18.30
2018-06-15T07:16:03.710Z,15.93
2018-06-15T07:18:31.393Z,20.07
2018-06-15T07:20:59.073Z,17.27
2018-06-15T07:23:26.798Z,15.93
2018-06-15T07:25:54.391Z,12.80
2018-06-15T07:28:22.034Z,12.10
2018-06-15T07:30:49.619Z,11.83
2018-06-15T07:33:17.238Z,9.70
2018-06-15T07:35:44.942Z,13.10
2018-06-15T07:38:12.537Z,13.53
2018-06-15T07:40:40.167Z,13.17
2018-06-15T07:43:07.882Z,12.57
2018-06-15T07:45:35.494Z,13.27
2018-06-15T07:48:03.141Z,12.30
2018-06-15T07:50:30.735Z,10.40
2018-06-15T07:52:58.318Z,8.87
2018-06-15T07:55:25.897Z,9.87
2018-06-15T07:57:53.522Z,11.20
2018-06-15T08:00:21.129Z,12.93
2018-06-15T08:02:48.969Z,10.73
2018-06-15T08:05:16.628Z,10.43
2018-06-15T08:07:44.225Z,11.80
2018-06-15T08:10:11.857Z,11.50
2018-06-15T08:12:39.447Z,9.10
2018-06-15T08:15:07.023Z,10.77
2018-06-15T08:17:34.598Z,7.40
2018-06-15T08:20:02.391Z,7.00
2018-06-15T08:22:30.157Z,9.37
2018-06-15T08:24:57.786Z,6.10
2018-06-15T08:27:25.401Z,8.30
2018-06-15T08:29:53.122Z,8.10
2018-06-15T08:32:20.683Z,9.13
2018-06-15T08:34:48.575Z,9.43
2018-06-15T08:37:16.230Z,8.83
2018-06-15T08:39:43.817Z,9.00
2018-06-15T08:42:11.381Z,8.80
2018-06-15T08:44:38.944Z,9.40
2018-06-15T08:47:06.525Z,8.90
2018-06-15T08:49:34.126Z,8.90
2018-06-15T08:52:01.731Z,6.67
2018-06-15T08:54:29.358Z,7.27
2018-06-15T08:56:56.954Z,5.73
2018-06-15T08:59:24.664Z,7.10
2018-06-15T09:01:52.367Z,11.87
2018-06-15T09:04:19.976Z,8.87
2018-06-15T09:06:47.723Z,6.77
2018-06-15T09:09:15.338Z,4.50
2018-06-15T09:11:42.902Z,8.13
2018-06-15T09:14:10.501Z,4.93
2018-06-15T09:16:38.067Z,10.57
2018-06-15T09:19:05.830Z,5.50
2018-06-15T09:21:33.409Z,5.20
2018-06-15T09:24:01.072Z,5.23
2018-06-15T09:26:28.688Z,5.17
2018-06-15T09:28:56.343Z,6.80
2018-06-15T09:31:24.061Z,5.07
2018-06-15T09:33:51.703Z,6.57
2018-06-15T09:36:19.335Z,10.37
2018-06-15T09:38:46.905Z,7.60
2018-06-15T09:41:14.597Z,6.80
2018-06-15T09:43:42.259Z,6.33
2018-06-15T09:46:10.026Z,7.63
2018-06-15T09:48:42.297Z,6.00
2018-06-15T09:51:10.506Z,5.40
2018-06-15T09:53:38.058Z,5.10
2018-06-15T09:56:05.710Z,5.43
2018-06-15T09:58:33.333Z,6.47
2018-06-15T10:01:07.305Z,5.70
2018-06-15T10:03:35.054Z,11.97
2018-06-15T10:06:03.447Z,7.50
2018-06-15T10:08:31.029Z,7.13
2018-06-15T10:10:58.754Z,7.50
2018-06-15T10:13:26.480Z,9.27
2018-06-15T10:15:54.281Z,7.83
2018-06-15T10:18:21.816Z,7.20
2018-06-15T10:20:49.433Z,5.97
2018-06-15T10:23:17.351Z,5.63
2018-06-15T10:25:45.169Z,6.80
2018-06-15T10:28:12.747Z,5.80
2018-06-15T10:30:40.798Z,7.60
2018-06-15T10:33:08.941Z,6.10
2018-06-15T10:35:36.793Z,7.17
2018-06-15T10:38:04.744Z,4.00
2018-06-15T10:40:32.672Z,6.40
2018-06-15T10:43:00.261Z,7.17
2018-06-15T10:45:30.147Z,6.03
2018-06-15T10:47:57.834Z,5.70
2018-06-15T10:50:25.469Z,5.87
2018-06-15T10:52:53.079Z,6.90
2018-06-15T10:55:20.795Z,6.00
2018-06-15T10:57:48.377Z,6.60
2018-06-15T11:00:16.181Z,7.00
2018-06-15T11:02:43.854Z,6.13
2018-06-15T11:05:11.465Z,12.70
2018-06-15T11:07:39.129Z,7.37
2018-06-15T11:10:06.755Z,5.70
2018-06-15T11:12:34.484Z,7.53
2018-06-15T11:15:02.951Z,5.00
2018-06-15T11:17:30.579Z,4.90
2018-06-15T11:19:58.265Z,6.47
2018-06-15T11:22:25.863Z,7.30
2018-06-15T11:24:53.514Z,7.43
2018-06-15T11:27:21.117Z,5.73
2018-06-15T11:29:48.736Z,5.80
2018-06-15T11:32:16.495Z,6.97
2018-06-15T11:34:44.032Z,5.87
2018-06-15T11:37:11.675Z,5.70
2018-06-15T11:39:39.336Z,6.00
2018-06-15T11:42:07.007Z,5.83
2018-06-15T11:44:34.659Z,5.67
2018-06-15T11:47:02.281Z,8.87
2018-06-15T11:49:29.873Z,4.60
2018-06-15T11:51:57.649Z,6.57
2018-06-15T11:54:25.247Z,7.13
2018-06-15T11:56:52.871Z,7.30
2018-06-15T11:59:20.526Z,5.83
2018-06-15T12:01:48.206Z,7.40
2018-06-15T12:04:15.846Z,4.17
2018-06-15T12:06:43.543Z,5.67
2018-06-15T12:09:11.104Z,5.60
2018-06-15T12:11:38.758Z,8.87
2018-06-15T12:14:06.318Z,6.57
2018-06-15T12:16:33.946Z,4.40
2018-06-15T12:19:01.777Z,6.03
2018-06-15T12:21:29.630Z,5.10
2018-06-15T12:23:57.213Z,8.03
2018-06-15T12:26:24.858Z,4.70
2018-06-15T12:28:52.568Z,6.13
2018-06-15T12:31:20.181Z,5.77
2018-06-15T12:33:47.819Z,6.47
2018-06-15T12:36:15.853Z,4.00
2018-06-15T12:38:43.477Z,6.07
2018-06-15T12:41:11.397Z,6.93
2018-06-15T12:43:39.030Z,5.03
2018-06-15T12:46:06.726Z,5.90
2018-06-15T12:48:34.362Z,5.43
2018-06-15T12:51:01.974Z,4.30
2018-06-15T12:53:29.574Z,6.60
2018-06-15T12:55:57.168Z,4.97
2018-06-15T12:58:24.886Z,5.20
2018-06-15T13:00:52.511Z,3.60
2018-06-15T13:03:20.125Z,4.27
2018-06-15T13:05:47.914Z,4.87
2018-06-15T13:08:15.675Z,5.53
2018-06-15T13:10:43.256Z,7.57
2018-06-15T13:13:10.866Z,6.60
2018-06-15T13:15:38.531Z,5.57
2018-06-15T13:18:06.181Z,4.60
2018-06-15T13:20:35.713Z,4.37
2018-06-15T13:23:03.341Z,5.90
2018-06-15T13:25:30.918Z,5.27
2018-06-15T13:27:58.516Z,5.50
2018-06-15T13:30:26.190Z,6.27
2018-06-15T13:32:53.825Z,6.13
2018-06-15T13:35:21.562Z,3.60
2018-06-15T13:37:49.142Z,7.63
2018-06-15T13:40:16.757Z,4.20
2018-06-15T13:42:44.358Z,6.07
2018-06-15T13:45:11.916Z,5.67
2018-06-15T13:47:39.529Z,8.00
2018-06-15T13:50:07.133Z,4.43
2018-06-15T13:52:34.754Z,6.70
2018-06-15T13:55:02.380Z,5.27
2018-06-15T13:57:29.937Z,5.90
2018-06-15T13:59:57.540Z,5.30
2018-06-15T14:02:25.138Z,8.10
2018-06-15T14:04:52.750Z,5.23
2018-06-15T14:07:20.444Z,6.60
2018-06-15T14:09:48.046Z,6.07
2018-06-15T14:12:15.825Z,7.47
2018-06-15T14:14:43.501Z,5.53
2018-06-15T14:17:11.059Z,3.93
2018-06-15T14:19:38.676Z,6.40
2018-06-15T14:22:06.232Z,5.70
2018-06-15T14:24:33.806Z,7.43
2018-06-15T14:27:01.397Z,6.50
2018-06-15T14:29:29.079Z,7.23
2018-06-15T14:31:56.676Z,7.13
2018-06-15T14:34:24.337Z,4.53
2018-06-15T14:36:51.934Z,5.40
2018-06-15T14:39:19.566Z,7.80
2018-06-15T14:41:47.187Z,8.20
2018-06-15T14:44:14.809Z,5.40
2018-06-15T14:46:42.393Z,4.60
2018-06-15T14:49:10.081Z,6.20
2018-06-15T14:51:37.610Z,6.03
2018-06-15T14:54:05.237Z,9.27
2018-06-15T14:56:32.873Z,5.73
2018-06-15T14:59:00.694Z,6.23
2018-06-15T15:01:28.577Z,5.60
2018-06-15T15:03:56.238Z,6.00
2018-06-15T15:06:23.874Z,5.53
2018-06-15T15:08:51.473Z,5.30
2018-06-15T15:11:19.030Z,5.20
2018-06-15T15:13:46.645Z,3.83
2018-06-15T15:16:14.193Z,3.93
2018-06-15T15:18:42.009Z,5.60
2018-06-15T15:21:09.649Z,4.77
2018-06-15T15:23:37.241Z,7.57
2018-06-15T15:26:04.830Z,6.30
2018-06-15T15:28:32.465Z,5.77
2018-06-15T15:31:00.104Z,4.50
2018-06-15T15:33:27.869Z,5.20
2018-06-15T15:35:55.698Z,7.33
2018-06-15T15:38:23.270Z,4.40
2018-06-15T15:40:50.860Z,6.70
2018-06-15T15:43:18.503Z,5.60
2018-06-15T15:45:46.124Z,3.50
2018-06-15T15:48:13.685Z,5.73
2018-06-15T15:50:41.303Z,4.87
2018-06-15T15:53:08.877Z,5.83
2018-06-15T15:55:36.483Z,5.13
2018-06-15T15:58:04.101Z,5.13
2018-06-15T16:00:32.538Z,6.43
2018-06-15T16:03:00.091Z,5.27
2018-06-15T16:05:27.698Z,2.83
2018-06-15T16:07:55.269Z,4.73
2018-06-15T16:10:22.881Z,3.00
2018-06-15T16:12:50.434Z,5.10
2018-06-15T16:15:18.026Z,6.27
2018-06-15T16:17:45.621Z,4.57
2018-06-15T16:20:13.276Z,4.43
2018-06-15T16:22:40.873Z,5.43
2018-06-15T16:25:08.507Z,4.43
2018-06-15T16:27:36.117Z,4.47
2018-06-15T16:30:04.077Z,4.80
2018-06-15T16:32:31.839Z,3.30
2018-06-15T16:34:59.454Z,5.10
2018-06-15T16:37:27.078Z,4.20
2018-06-15T16:39:54.741Z,3.77
2018-06-15T16:42:22.278Z,4.00
2018-06-15T16:44:49.906Z,5.60
2018-06-15T16:47:17.467Z,4.80
2018-06-15T16:49:45.049Z,5.30
2018-06-15T16:52:12.618Z,5.83
2018-06-15T16:54:40.214Z,4.40
2018-06-15T16:57:07.938Z,3.63
2018-06-15T16:59:35.534Z,5.17
2018-06-15T17:02:03.312Z,5.17
2018-06-15T17:04:30.856Z,3.97
2018-06-15T17:06:58.449Z,3.30
2018-06-15T17:09:26.035Z,3.80
2018-06-15T17:11:53.701Z,4.47
2018-06-15T17:14:21.382Z,4.80
2018-06-15T17:16:48.976Z,4.00
2018-06-15T17:19:16.593Z,4.03
2018-06-15T17:21:44.192Z,4.90
2018-06-15T17:24:11.785Z,4.20
2018-06-15T17:26:39.462Z,3.27
2018-06-15T17:29:07.225Z,7.43
2018-06-15T17:31:34.890Z,4.83
2018-06-15T17:34:02.446Z,5.63
2018-06-15T17:36:30.034Z,4.80
2018-06-15T17:38:57.573Z,3.67
2018-06-15T17:41:25.163Z,4.40
2018-06-15T17:43:52.747Z,4.97
2018-06-15T17:46:20.445Z,3.80
2018-06-15T17:48:48.106Z,4.07
2018-06-15T17:51:15.795Z,5.40
2018-06-15T17:53:43.374Z,3.63
2018-06-15T17:56:11.936Z,5.47
2018-06-15T17:58:40.034Z,4.47
2018-06-15T18:01:07.670Z,3.73
2018-06-15T18:03:35.295Z,3.10
2018-06-15T18:06:03.903Z,3.10
2018-06-15T18:08:31.508Z,4.53
2018-06-15T18:10:59.113Z,6.33
2018-06-15T18:13:26.678Z,4.90
2018-06-15T18:15:54.267Z,4.90
2018-06-15T18:18:21.876Z,4.33
2018-06-15T18:20:49.507Z,4.73
2018-06-15T18:23:17.171Z,3.03
2018-06-15T18:25:44.722Z,4.00
2018-06-15T18:28:12.322Z,4.40
2018-06-15T18:30:39.901Z,3.67
2018-06-15T18:33:07.512Z,5.40
2018-06-15T18:35:35.083Z,3.93
2018-06-15T18:38:02.746Z,3.17
2018-06-15T18:40:30.328Z,4.53
2018-06-15T18:42:57.898Z,3.13
2018-06-15T18:45:25.490Z,4.73
2018-06-15T18:47:53.067Z,5.50
2018-06-15T18:50:20.634Z,4.67
2018-06-15T18:52:48.192Z,6.30
2018-06-15T18:55:16.030Z,3.20
2018-06-15T18:57:43.672Z,4.20
2018-06-15T19:00:11.817Z,6.10
2018-06-15T19:02:39.830Z,4.30
2018-06-15T19:05:07.421Z,2.87
2018-06-15T19:07:35.062Z,6.30
2018-06-15T19:10:02.952Z,3.53
2018-06-15T19:12:30.737Z,6.47
2018-06-15T19:14:58.806Z,3.00
2018-06-15T19:17:26.494Z,4.20
2018-06-15T19:19:54.153Z,3.97
2018-06-15T19:22:22.654Z,3.87
2018-06-15T19:24:50.191Z,4.70
2018-06-15T19:27:17.922Z,4.43
2018-06-15T19:29:45.517Z,4.67
2018-06-15T19:32:13.127Z,4.60
2018-06-15T19:34:40.736Z,7.10
2018-06-15T19:37:08.400Z,4.00
2018-06-15T19:39:36.054Z,3.47
2018-06-15T19:42:04.515Z,4.33
2018-06-15T19:44:32.101Z,2.73
2018-06-15T19:46:59.750Z,5.53
2018-06-15T19:49:27.475Z,3.47
2018-06-15T19:51:55.157Z,5.23
2018-06-15T19:54:22.775Z,3.33
2018-06-15T19:56:50.342Z,6.77
2018-06-15T19:59:18.085Z,4.53
2018-06-15T20:01:45.657Z,3.80
2018-06-15T20:04:13.363Z,4.00
2018-06-15T20:06:41.253Z,3.77
2018-06-15T20:09:09.020Z,3.87
2018-06-15T20:11:37.582Z,3.17
2018-06-15T20:14:05.190Z,3.00
2018-06-15T20:16:32.776Z,5.10
2018-06-15T20:19:00.738Z,2.77
2018-06-15T20:21:28.285Z,3.87
2018-06-15T20:23:55.926Z,5.60
2018-06-15T20:26:23.569Z,3.47
2018-06-15T20:28:51.175Z,3.43
2018-06-15T20:31:18.732Z,6.37
2018-06-15T20:33:46.295Z,4.70
2018-06-15T20:36:14.212Z,3.00
2018-06-15T20:38:41.953Z,5.23
2018-06-15T20:41:10.044Z,2.70
2018-06-15T20:43:37.666Z,4.40
2018-06-15T20:46:05.348Z,7.67
2018-06-15T20:48:32.993Z,3.20
2018-06-15T20:51:00.559Z,3.63
2018-06-15T20:53:28.152Z,4.07
2018-06-15T20:55:55.956Z,2.90
2018-06-15T20:58:24.265Z,5.27
2018-06-15T21:00:52.001Z,5.60
2018-06-15T21:03:19.796Z,3.93
2018-06-15T21:05:47.408Z,4.10
2018-06-15T21:08:15.007Z,2.87
2018-06-15T21:10:42.586Z,2.80
2018-06-15T21:13:10.236Z,4.70
2018-06-15T21:15:38.002Z,2.80
2018-06-15T21:18:05.753Z,2.97
2018-06-15T21:20:33.377Z,2.40
2018-06-15T21:23:01.462Z,4.70
2018-06-15T21:25:29.036Z,4.80
2018-06-15T21:27:56.566Z,3.60
2018-06-15T21:30:24.174Z,2.70
2018-06-15T21:32:51.770Z,2.20
2018-06-15T21:35:19.323Z,5.17
2018-06-15T21:37:46.889Z,2.60
2018-06-15T21:40:14.455Z,3.10
2018-06-15T21:42:42.091Z,2.90
2018-06-15T21:45:09.729Z,3.20
2018-06-15T21:47:37.284Z,4.17
2018-06-15T21:50:05.014Z,2.77
2018-06-15T21:52:32.628Z,4.93
2018-06-15T21:55:00.484Z,3.30
2018-06-15T21:57:28.098Z,4.17
2018-06-15T21:59:55.717Z,3.30
2018-06-15T22:02:23.342Z,3.10
2018-06-15T22:04:51.014Z,4.20
2018-06-15T22:07:18.589Z,3.60
2018-06-15T22:09:46.200Z,3.80
2018-06-15T22:12:13.793Z,4.93
2018-06-15T22:14:41.462Z,2.90
2018-06-15T22:17:09.149Z,3.17
2018-06-15T22:19:36.952Z,3.47
2018-06-15T22:22:04.546Z,2.90
2018-06-15T22:24:32.417Z,4.50
2018-06-15T22:27:00.260Z,2.40
2018-06-15T22:29:28.437Z,3.13
2018-06-15T22:31:56.756Z,3.57
2018-06-15T22:34:25.432Z,3.67
2018-06-15T22:36:53.072Z,4.00
2018-06-15T22:39:20.670Z,2.60
2018-06-15T22:41:48.292Z,3.50
2018-06-15T22:44:15.870Z,2.40
2018-06-15T22:46:43.487Z,3.47
2018-06-15T22:49:11.594Z,3.93
2018-06-15T22:51:39.673Z,3.63
2018-06-15T22:54:07.378Z,4.17
2018-06-15T22:56:35.127Z,2.90
2018-06-15T22:59:02.856Z,3.77
2018-06-15T23:01:30.477Z,4.80
2018-06-15T23:03:58.267Z,4.10
2018-06-15T23:06:26.329Z,2.30
2018-06-15T23:08:54.100Z,4.13
2018-06-15T23:11:21.751Z,2.50
2018-06-15T23:13:49.374Z,2.63
2018-06-15T23:16:17.192Z,4.90
2018-06-15T23:18:44.761Z,2.77
2018-06-15T23:21:12.410Z,4.10
2018-06-15T23:23:40.471Z,2.83
2018-06-15T23:26:08.302Z,3.93
2018-06-15T23:28:35.979Z,2.30
2018-06-15T23:31:03.637Z,2.47
2018-06-15T23:33:31.210Z,2.10
2018-06-15T23:35:58.912Z,3.03
2018-06-15T23:38:26.549Z,4.70
2018-06-15T23:40:54.182Z,2.83
2018-06-15T23:43:21.781Z,3.20
2018-06-15T23:45:49.429Z,2.33
2018-06-15T23:48:17.067Z,5.10
2018-06-15T23:50:44.683Z,3.40
2018-06-15T23:53:12.238Z,2.47
2018-06-15T23:55:39.833Z,2.93
2018-06-15T23:58:07.635Z,4.17
